Tuesday, October 23, 2018, 10:09 PM CDT
Back to Local

KT82, Fredericksburg, Gillespie County Airport

Location: Fredericksburg, TX, United States Lat: 30.244
Local Time: 10:09 PM CDT ( 3:09 GMT) Lon: -98.909
Time Zone: US/Central Elev: 1696 ft

Show me the last for .
Show Decoded

2018-10-23 21:35 METAR KT82 240235Z AUTO 00000KT 10SM -DZ SCT030 OVC041 14/09 A3016 RMK AO2
                 T01430087 =
2018-10-23 21:15 METAR KT82 240215Z AUTO 00000KT 10SM -DZ BKN029 OVC041 15/08 A3016 RMK AO2
                 T01460082 =
2018-10-23 20:55 METAR KT82 240155Z AUTO 00000KT 10SM OVC029 15/08 A3016 RMK AO2 T01500081 =
2018-10-23 20:35 METAR KT82 240135Z AUTO 07004KT 10SM -RA OVC029 15/08 A3015 RMK AO2 T01520079 =
2018-10-23 20:15 METAR KT82 240115Z AUTO 00000KT 10SM OVC029 16/08 A3016 RMK AO2 T01550076 =
2018-10-23 19:55 METAR KT82 240055Z AUTO 06004KT 10SM OVC033 16/08 A3014 RMK AO2 T01550084 =
2018-10-23 19:35 METAR KT82 240035Z AUTO 06004KT 10SM SCT025 OVC033 16/09 A3015 RMK AO2 T01570089
                 =
2018-10-23 19:15 METAR KT82 240015Z AUTO 06005KT 10SM OVC025 16/09 A3014 RMK AO2 T01600091 =
2018-10-23 18:55 METAR KT82 232355Z AUTO 07006KT 10SM OVC025 16/10 A3014 RMK AO2 T01620099 10175
                 20162 =
2018-10-23 18:35 METAR KT82 232335Z AUTO 00000KT 10SM OVC025 17/10 A3015 RMK AO2 T01650100 =
2018-10-23 18:15 METAR KT82 232315Z AUTO 07004KT 10SM OVC025 17/10 A3014 RMK AO2 T01660104 =
2018-10-23 17:55 METAR KT82 232255Z AUTO 09005KT 10SM BKN025 OVC037 17/10 A3014 RMK AO2 T01660102
                 =
2018-10-23 17:35 METAR KT82 232235Z AUTO 08007KT 10SM BKN025 OVC037 17/10 A3014 RMK AO2 T01670101
                 =
2018-10-23 17:15 METAR KT82 232215Z AUTO 10006KT 10SM SCT027 OVC037 17/11 A3014 RMK AO2 T01670105
                 =
2018-10-23 16:55 METAR KT82 232155Z AUTO 10004KT 10SM BKN027 OVC039 17/11 A3014 RMK AO2 T01660107
                 =
2018-10-23 16:35 METAR KT82 232135Z AUTO 08005KT 10SM SCT025 OVC037 17/11 A3014 RMK AO2 T01660107
                 =
2018-10-23 16:15 METAR KT82 232115Z AUTO 07005KT 10SM SCT023 SCT029 OVC037 17/11 A3014 RMK AO2
                 T01670107 =
2018-10-23 15:55 METAR KT82 232055Z AUTO 08005KT 10SM SCT021 OVC037 17/11 A3013 RMK AO2 T01670105
                 =
2018-10-23 15:35 METAR KT82 232035Z AUTO 09008KT 10SM SCT021 OVC039 17/10 A3013 RMK AO2 T01720101
                 =
2018-10-23 15:15 METAR KT82 232015Z AUTO 06006KT 10SM BKN023 BKN029 OVC039 17/10 A3014 RMK AO2
                 T01670095 =
2018-10-23 14:55 METAR KT82 231955Z AUTO 09005KT 10SM OVC023 17/09 A3016 RMK AO2 T01670089 =
2018-10-23 14:35 METAR KT82 231935Z AUTO 09005KT 10SM OVC023 17/09 A3017 RMK AO2 T01650088 =
2018-10-23 14:15 METAR KT82 231915Z AUTO 05007KT 10SM OVC026 17/09 A3017 RMK AO2 T01660091 =
2018-10-23 13:55 METAR KT82 231855Z AUTO 10007KT 10SM OVC025 17/09 A3017 RMK AO2 T01650087 =
2018-10-23 13:35 METAR KT82 231835Z AUTO 08008KT 10SM BKN023 OVC035 17/09 A3018 RMK AO2 T01670091
                 =
2018-10-23 13:15 METAR KT82 231815Z AUTO 07006KT 10SM SCT029 OVC035 17/09 A3019 RMK AO2 T01680090
                 =
2018-10-23 12:55 METAR KT82 231755Z AUTO 09007KT 10SM OVC035 17/09 A3020 RMK AO2 T01690094 10169
                 20111 =
2018-10-23 12:35 METAR KT82 231735Z AUTO 11004KT 10SM OVC035 17/10 A3021 RMK AO2 T01660102 =
2018-10-23 12:15 METAR KT82 231715Z AUTO 08009KT 10SM OVC035 16/10 A3021 RMK AO2 T01620101 =
2018-10-23 11:55 METAR KT82 231655Z AUTO 09005KT 10SM OVC035 16/10 A3022 RMK AO2 T01560097 =
2018-10-23 11:35 METAR KT82 231635Z AUTO 09005KT 10SM BKN035 16/10 A3022 RMK AO2 T01560097 =
2018-10-23 11:15 METAR KT82 231615Z AUTO 09006KT 10SM SCT033 15/09 A3022 RMK AO2 T01540094 =
2018-10-23 10:55 METAR KT82 231555Z AUTO 07005KT 10SM SCT080 15/10 A3021 RMK AO2 T01520100 =
2018-10-23 10:35 METAR KT82 231535Z AUTO 05006KT 10SM OVC080 14/10 A3021 RMK AO2 T01430098 =
2018-10-23 10:15 METAR KT82 231515Z AUTO 05005KT 10SM SCT070 OVC080 14/10 A3021 RMK AO2 T01370097
                 =
2018-10-23 09:55 METAR KT82 231455Z AUTO 06004KT 10SM BKN070 OVC080 14/09 A3021 RMK AO2 T01350093
                 =
2018-10-23 09:35 METAR KT82 231435Z AUTO 00000KT 10SM BKN044 SCT060 OVC065 13/09 A3021 RMK AO2
                 T01300091 =
2018-10-23 09:15 METAR KT82 231415Z AUTO 00000KT 10SM OVC044 13/09 A3021 RMK AO2 T01250089 =
2018-10-23 08:55 METAR KT82 231355Z AUTO 00000KT 10SM OVC046 12/09 A3020 RMK AO2 T01210092 =
2018-10-23 08:35 METAR KT82 231335Z AUTO 00000KT 10SM OVC046 12/09 A3019 RMK AO2 T01180088 =
2018-10-23 08:15 METAR KT82 231315Z AUTO 00000KT 10SM OVC046 12/09 A3018 RMK AO2 T01170089 =
2018-10-23 07:55 METAR KT82 231255Z AUTO 00000KT 10SM OVC046 12/09 A3018 RMK AO2 T01150086 =
2018-10-23 07:35 METAR KT82 231235Z AUTO 00000KT 10SM SCT022 OVC046 11/09 A3017 RMK AO2 T01130087
                 =
2018-10-23 07:15 METAR KT82 231215Z AUTO 00000KT 10SM SCT022 OVC048 11/08 A3017 RMK AO2 T01130081
                 =
2018-10-23 06:55 METAR KT82 231155Z AUTO 00000KT 10SM OVC050 11/08 A3017 RMK AO2 70008 T01110081
                 10122 20108 =
2018-10-23 06:35 METAR KT82 231135Z AUTO 00000KT 10SM OVC050 11/08 A3018 RMK AO2 T01110080 =
2018-10-23 06:15 METAR KT82 231115Z AUTO 35003KT 10SM SCT050 BKN065 OVC080 11/08 A3017 RMK AO2
                 T01100082 =
2018-10-23 05:55 METAR KT82 231055Z AUTO 00000KT 10SM BKN065 OVC080 11/07 A3016 RMK AO2 T01110073
                 =
2018-10-23 05:35 METAR KT82 231035Z AUTO 00000KT 10SM SCT065 BKN080 11/07 A3016 RMK AO2 T01100074
                 =
2018-10-23 05:15 METAR KT82 231015Z AUTO 00000KT 10SM BKN049 11/08 A3016 RMK AO2 T01080075 =
2018-10-23 04:55 METAR KT82 230955Z AUTO 00000KT 10SM SCT028 OVC049 11/07 A3016 RMK AO2 T01100068
                 =
2018-10-23 04:35 METAR KT82 230935Z AUTO 00000KT 10SM BKN026 OVC047 11/07 A3016 RMK AO2 T01090072
                 =
2018-10-23 04:15 METAR KT82 230915Z AUTO 00000KT 10SM BKN026 OVC049 11/08 A3016 RMK AO2 T01100077
                 =
2018-10-23 03:55 METAR KT82 230855Z AUTO 00000KT 10SM OVC026 11/08 A3016 RMK AO2 T01100081 =
2018-10-23 03:35 METAR KT82 230835Z AUTO 00000KT 10SM OVC028 11/08 A3017 RMK AO2 T01100076 =
2018-10-23 03:15 METAR KT82 230815Z AUTO 00000KT 10SM -DZ BKN022 BKN028 OVC045 11/08 A3017 RMK
                 AO2 T01100079 =
2018-10-23 02:55 METAR KT82 230755Z AUTO 00000KT 10SM BKN022 OVC047 11/08 A3018 RMK AO2 T01110079
                 =
2018-10-23 02:35 METAR KT82 230735Z AUTO 00000KT 10SM -DZ BKN022 OVC049 11/08 A3018 RMK AO2
                 T01120081 =
2018-10-23 02:15 METAR KT82 230715Z AUTO 00000KT 10SM -DZ OVC022 12/09 A3018 RMK AO2 T01170085 =
2018-10-23 01:55 METAR KT82 230655Z AUTO 00000KT 10SM -DZ BKN022 OVC035 12/09 A3019 RMK AO2
                 T01200094 =
2018-10-23 01:35 METAR KT82 230635Z AUTO 00000KT 10SM -DZ BKN024 OVC035 12/10 A3018 RMK AO2
                 T01200098 =
2018-10-23 01:15 METAR KT82 230615Z AUTO 00000KT 10SM -DZ OVC024 12/10 A3019 RMK AO2 T01200098 =
2018-10-23 00:55 METAR KT82 230555Z AUTO 00000KT 10SM -DZ OVC026 12/10 A3019 RMK AO2 60003
                 T01220104 10136 20120 401640120 =
2018-10-23 00:35 METAR KT82 230535Z AUTO 00000KT 10SM OVC026 12/10 A3020 RMK AO2 T01210103 =
2018-10-23 00:15 METAR KT82 230515Z AUTO 00000KT 10SM -DZ OVC026 12/11 A3020 RMK AO2 T01210105 =
2018-10-22 23:55 METAR KT82 230455Z AUTO 00000KT 10SM OVC026 12/11 A3020 RMK AO2 T01220105 =
2018-10-22 23:35 METAR KT82 230435Z AUTO 00000KT 10SM OVC028 12/10 A3020 RMK AO2 T01200103 =
2018-10-22 23:15 METAR KT82 230415Z AUTO 00000KT 10SM OVC028 12/11 A3020 RMK AO2 T01230105 =
2018-10-22 22:55 METAR KT82 230355Z AUTO 00000KT 10SM OVC028 13/11 A3020 RMK AO2 T01250106 =
2018-10-22 22:35 METAR KT82 230335Z AUTO 00000KT 10SM OVC028 13/11 A3019 RMK AO2 T01260105 =
2018-10-22 22:15 METAR KT82 230315Z AUTO 00000KT 10SM OVC028 12/10 A3019 RMK AO2 T01240099 =

Support USWX by starting your Amazon purchase here.